createdAt,value
2016-06-27T00:00:54.410Z,0
2016-06-27T00:01:54.352Z,0
2016-06-27T00:02:54.363Z,0
2016-06-27T00:03:53.852Z,0
2016-06-27T00:04:55.718Z,0
2016-06-27T00:05:54.313Z,0
2016-06-27T00:06:54.069Z,0
2016-06-27T00:07:54.229Z,0
2016-06-27T00:08:54.134Z,0
2016-06-27T00:09:54.388Z,0
2016-06-27T00:10:54.195Z,0
2016-06-27T00:11:55.516Z,0
2016-06-27T00:12:54.343Z,0
2016-06-27T00:13:54.450Z,0
2016-06-27T00:14:54.421Z,0
2016-06-27T00:15:54.471Z,0
2016-06-27T00:16:54.335Z,0
2016-06-27T00:17:54.290Z,0
2016-06-27T00:18:54.437Z,0
2016-06-27T00:19:54.973Z,0
2016-06-27T00:20:54.887Z,0
2016-06-27T00:21:55.633Z,0
2016-06-27T00:22:55.038Z,0
2016-06-27T00:23:55.416Z,0
2016-06-27T00:24:54.514Z,0
2016-06-27T00:25:54.218Z,0
2016-06-27T00:26:54.969Z,0
2016-06-27T00:27:55.969Z,0
2016-06-27T00:28:54.215Z,0
2016-06-27T00:29:55.934Z,0
2016-06-27T00:30:55.232Z,0
2016-06-27T00:31:54.398Z,0
2016-06-27T00:32:54.322Z,0
2016-06-27T00:33:55.195Z,0
2016-06-27T00:34:54.179Z,0
2016-06-27T00:35:54.029Z,0
2016-06-27T00:36:54.022Z,0
2016-06-27T00:37:54.859Z,0
2016-06-27T00:38:54.429Z,0
2016-06-27T00:39:54.256Z,0
2016-06-27T00:40:56.822Z,0
2016-06-27T00:41:54.431Z,0
2016-06-27T00:42:54.327Z,0
2016-06-27T00:43:54.249Z,0
2016-06-27T00:44:54.387Z,0
2016-06-27T00:45:54.434Z,0
2016-06-27T00:46:54.344Z,0
2016-06-27T00:47:54.363Z,0
2016-06-27T00:48:54.634Z,0
2016-06-27T00:49:54.157Z,0
2016-06-27T00:50:54.767Z,0
2016-06-27T00:51:54.842Z,0
2016-06-27T00:52:54.360Z,0
2016-06-27T00:53:54.197Z,0
2016-06-27T00:54:54.190Z,0
2016-06-27T00:55:55.938Z,0
2016-06-27T00:56:55.022Z,0
2016-06-27T00:57:54.387Z,0
2016-06-27T00:58:54.264Z,0
2016-06-27T00:59:54.263Z,0
2016-06-27T01:00:54.943Z,0
2016-06-27T01:01:54.242Z,0
2016-06-27T01:02:55.163Z,0
2016-06-27T01:03:54.999Z,0
2016-06-27T01:04:54.299Z,0
2016-06-27T01:05:54.190Z,0
2016-06-27T01:06:54.240Z,0
2016-06-27T01:07:54.383Z,0
2016-06-27T01:08:55.185Z,0
2016-06-27T01:09:55.163Z,0
2016-06-27T01:10:54.524Z,0
2016-06-27T01:11:54.443Z,0
2016-06-27T01:12:54.374Z,0
2016-06-27T01:13:54.373Z,0
2016-06-27T01:14:54.278Z,0
2016-06-27T01:15:54.923Z,0
2016-06-27T01:16:54.410Z,0
2016-06-27T01:17:54.145Z,0
2016-06-27T01:18:54.406Z,0
2016-06-27T01:19:54.412Z,0
2016-06-27T01:20:54.307Z,0
2016-06-27T01:21:54.271Z,0
2016-06-27T01:22:56.211Z,0
2016-06-27T01:23:54.335Z,0
2016-06-27T01:24:54.392Z,0
2016-06-27T01:25:54.451Z,0
2016-06-27T01:26:54.316Z,0
2016-06-27T01:27:54.450Z,0
2016-06-27T01:28:54.375Z,0
2016-06-27T01:29:54.591Z,0
2016-06-27T01:30:54.524Z,0
2016-06-27T01:31:56.046Z,0
2016-06-27T01:32:54.407Z,0
2016-06-27T01:33:54.351Z,0
2016-06-27T01:34:53.996Z,0
2016-06-27T01:35:54.374Z,0
2016-06-27T01:36:54.287Z,0
2016-06-27T01:37:54.008Z,0
2016-06-27T01:38:54.349Z,0
2016-06-27T01:39:54.433Z,0
2016-06-27T01:40:54.413Z,0
2016-06-27T01:41:54.631Z,0
2016-06-27T01:42:54.315Z,0
2016-06-27T01:43:54.352Z,0
2016-06-27T01:44:54.533Z,0
2016-06-27T01:45:55.705Z,0
2016-06-27T01:46:54.354Z,0
2016-06-27T01:47:53.923Z,0
2016-06-27T01:48:54.273Z,0
2016-06-27T01:49:53.882Z,0
2016-06-27T01:50:54.438Z,0
2016-06-27T01:51:54.421Z,0
2016-06-27T01:52:54.355Z,0
2016-06-27T01:53:56.077Z,0
2016-06-27T01:54:55.216Z,0
2016-06-27T02:04:54.994Z,0
2016-06-27T02:05:10.597Z,0
2016-06-27T02:06:10.795Z,0
2016-06-27T02:07:10.770Z,0
2016-06-27T02:08:10.815Z,0
2016-06-27T02:09:10.771Z,0
2016-06-27T02:10:10.870Z,0
2016-06-27T02:11:11.023Z,0
2016-06-27T02:12:10.817Z,0
2016-06-27T02:13:10.321Z,0
2016-06-27T02:14:11.005Z,0
2016-06-27T02:15:10.802Z,0
2016-06-27T02:16:10.760Z,0
2016-06-27T02:17:10.513Z,0
2016-06-27T02:18:10.805Z,0
2016-06-27T02:19:10.517Z,0
2016-06-27T02:20:10.866Z,0
2016-06-27T02:21:10.738Z,0
2016-06-27T02:22:10.713Z,0
2016-06-27T02:23:10.622Z,0
2016-06-27T02:24:10.957Z,0
2016-06-27T02:25:10.676Z,0
2016-06-27T02:26:10.811Z,0
2016-06-27T02:27:10.634Z,0
2016-06-27T02:28:11.005Z,0
2016-06-27T02:29:10.693Z,0
2016-06-27T02:30:10.880Z,0
2016-06-27T02:31:10.412Z,0
2016-06-27T02:32:10.610Z,0
2016-06-27T02:33:10.317Z,0
2016-06-27T02:34:10.326Z,0
2016-06-27T02:35:10.886Z,0
2016-06-27T02:36:10.530Z,0
2016-06-27T02:37:10.319Z,0
2016-06-27T02:38:10.518Z,0
2016-06-27T02:39:10.299Z,0
2016-06-27T02:40:10.845Z,0
2016-06-27T02:41:11.166Z,0
2016-06-27T02:42:10.789Z,0
2016-06-27T02:43:10.707Z,0
2016-06-27T02:44:10.541Z,0
2016-06-27T02:45:10.804Z,0
2016-06-27T02:46:10.847Z,0
2016-06-27T02:47:10.981Z,0
2016-06-27T02:48:10.763Z,0
2016-06-27T02:49:10.801Z,0
2016-06-27T02:50:10.952Z,0
2016-06-27T02:51:10.756Z,0
2016-06-27T02:52:10.945Z,0
2016-06-27T02:53:10.932Z,0
2016-06-27T02:54:11.823Z,0
2016-06-27T02:55:10.635Z,0
2016-06-27T02:56:10.667Z,0
2016-06-27T02:57:10.654Z,0
2016-06-27T02:58:11.127Z,0
2016-06-27T02:59:10.733Z,0
2016-06-27T03:00:10.641Z,0
2016-06-27T03:01:10.836Z,0
2016-06-27T03:02:10.868Z,0
2016-06-27T03:03:10.786Z,0
2016-06-27T03:04:10.865Z,0
2016-06-27T03:05:10.706Z,0
2016-06-27T03:06:10.551Z,5
2016-06-27T03:07:10.682Z,5
2016-06-27T03:08:10.606Z,5
2016-06-27T03:09:10.699Z,5
2016-06-27T03:10:10.327Z,5
2016-06-27T03:11:10.619Z,5
2016-06-27T03:12:10.401Z,5
2016-06-27T03:13:10.667Z,5
2016-06-27T03:14:10.634Z,5
2016-06-27T03:15:11.247Z,5
2016-06-27T03:16:10.576Z,10
2016-06-27T03:17:10.526Z,10
2016-06-27T03:18:10.819Z,10
2016-06-27T03:19:10.382Z,10
2016-06-27T03:20:11.475Z,10
2016-06-27T03:21:10.280Z,10
2016-06-27T03:22:10.235Z,10
2016-06-27T03:23:10.750Z,10
2016-06-27T03:24:10.460Z,15
2016-06-27T03:25:11.246Z,15
2016-06-27T03:26:10.671Z,15
2016-06-27T03:27:10.500Z,15
2016-06-27T03:28:10.555Z,15
2016-06-27T03:29:10.726Z,20
2016-06-27T03:30:10.825Z,20
2016-06-27T03:31:10.526Z,20
2016-06-27T03:32:10.759Z,20
2016-06-27T03:33:10.291Z,20
2016-06-27T03:34:10.873Z,25
2016-06-27T03:35:10.545Z,25
2016-06-27T03:36:10.620Z,25
2016-06-27T03:37:10.663Z,25
2016-06-27T03:38:10.687Z,25
2016-06-27T03:39:10.641Z,25
2016-06-27T03:40:10.605Z,25
2016-06-27T03:41:10.655Z,25
2016-06-27T03:42:10.443Z,25
2016-06-27T03:43:10.507Z,25
2016-06-27T03:44:10.624Z,30
2016-06-27T03:45:10.804Z,30
2016-06-27T03:46:10.399Z,30
2016-06-27T03:47:10.454Z,35
2016-06-27T03:48:10.478Z,35
2016-06-27T03:49:10.748Z,35
2016-06-27T04:02:11.367Z,55
2016-06-27T04:02:26.787Z,55
2016-06-27T04:03:27.008Z,55
2016-06-27T04:04:28.664Z,55
2016-06-27T04:05:26.765Z,55
2016-06-27T04:06:26.970Z,55
2016-06-27T04:19:27.694Z,60
2016-06-27T04:19:43.516Z,70
2016-06-27T04:20:44.921Z,70
2016-06-27T04:21:44.112Z,75
2016-06-27T04:22:43.326Z,75
2016-06-27T04:23:43.020Z,75
2016-06-27T04:24:42.986Z,75
2016-06-27T04:25:43.098Z,85
2016-06-27T04:26:43.325Z,90
2016-06-27T04:27:42.873Z,95
2016-06-27T04:28:42.935Z,100
2016-06-27T04:29:43.184Z,100
2016-06-27T04:30:44.074Z,105
2016-06-27T04:31:46.088Z,110
2016-06-27T04:32:43.249Z,110
2016-06-27T04:33:43.276Z,115
2016-06-27T04:34:43.183Z,140
2016-06-27T04:35:43.144Z,185
2016-06-27T04:36:43.165Z,205
2016-06-27T04:37:43.227Z,215
2016-06-27T04:38:43.003Z,225
2016-06-27T04:39:43.184Z,235
2016-06-27T04:40:42.982Z,245
2016-06-27T04:41:42.965Z,255
2016-06-27T04:42:43.689Z,255
2016-06-27T04:43:43.305Z,250
2016-06-27T04:44:43.251Z,265
2016-06-27T04:45:43.633Z,265
2016-06-27T04:46:43.407Z,280
2016-06-27T04:47:43.271Z,285
2016-06-27T04:48:42.927Z,285
2016-06-27T04:49:43.107Z,295
2016-06-27T04:50:43.294Z,300
2016-06-27T04:51:43.210Z,305
2016-06-27T04:52:43.887Z,310
2016-06-27T04:53:43.472Z,310
2016-06-27T04:54:43.089Z,315
2016-06-27T04:55:43.104Z,335
2016-06-27T04:56:43.367Z,345
2016-06-27T04:57:42.992Z,345
2016-06-27T04:58:43.395Z,345
2016-06-27T04:59:43.117Z,365
2016-06-27T05:00:42.842Z,385
2016-06-27T05:01:43.029Z,380
2016-06-27T05:02:43.058Z,380
2016-06-27T05:03:44.102Z,325
2016-06-27T05:04:43.249Z,390
2016-06-27T05:05:42.885Z,415
2016-06-27T05:06:43.077Z,415
2016-06-27T05:07:43.303Z,420
2016-06-27T05:08:42.907Z,400
2016-06-27T05:09:43.230Z,415
2016-06-27T05:10:43.149Z,405
2016-06-27T05:11:43.137Z,405
2016-06-27T05:12:43.369Z,430
2016-06-27T05:13:42.983Z,430
2016-06-27T05:14:42.898Z,440
2016-06-27T05:15:43.055Z,445
2016-06-27T05:16:43.112Z,420
2016-06-27T05:17:43.035Z,450
2016-06-27T05:18:44.893Z,450
2016-06-27T05:19:43.264Z,365
2016-06-27T05:20:47.330Z,480
2016-06-27T05:21:43.214Z,500
2016-06-27T05:22:43.857Z,530
2016-06-27T05:23:44.199Z,525
2016-06-27T05:24:43.619Z,510
2016-06-27T05:25:43.207Z,510
2016-06-27T05:26:43.025Z,510
2016-06-27T05:27:43.879Z,520
2016-06-27T05:28:44.085Z,545
2016-06-27T05:29:45.611Z,560
2016-06-27T05:30:43.661Z,560
2016-06-27T05:31:43.417Z,580
2016-06-27T05:32:43.211Z,585
2016-06-27T05:33:45.378Z,570
2016-06-27T05:34:43.331Z,170
2016-06-27T05:35:43.480Z,620
2016-06-27T05:36:43.398Z,635
2016-06-27T05:37:43.198Z,650
2016-06-27T05:38:43.269Z,655
2016-06-27T05:39:43.227Z,630
2016-06-27T05:40:43.654Z,665
2016-06-27T05:41:43.182Z,595
2016-06-27T05:42:43.095Z,750
2016-06-27T05:43:44.253Z,760
2016-06-27T05:44:43.277Z,710
2016-06-27T05:45:43.203Z,705
2016-06-27T05:46:45.427Z,675
2016-06-27T05:47:45.401Z,385
2016-06-27T05:48:43.994Z,745
2016-06-27T05:49:42.968Z,750
2016-06-27T05:50:42.957Z,430
2016-06-27T05:51:43.548Z,780
2016-06-27T05:52:42.502Z,340
2016-06-27T05:53:43.172Z,425
2016-06-27T05:54:42.938Z,755
2016-06-27T05:55:44.171Z,270
2016-06-27T05:56:44.572Z,395
2016-06-27T05:57:43.088Z,290
2016-06-27T05:58:43.335Z,465
2016-06-27T05:59:43.171Z,360
2016-06-27T06:00:43.598Z,320
2016-06-27T06:01:43.420Z,360
2016-06-27T06:02:43.286Z,385
2016-06-27T06:03:43.150Z,415
2016-06-27T06:04:43.116Z,405
2016-06-27T06:05:43.561Z,375
2016-06-27T06:06:43.231Z,325
2016-06-27T06:07:43.577Z,355
2016-06-27T06:08:43.277Z,315
2016-06-27T06:09:44.731Z,365
2016-06-27T06:10:44.003Z,385
2016-06-27T06:11:43.043Z,330
2016-06-27T06:12:43.329Z,390
2016-06-27T06:13:43.187Z,350
2016-06-27T06:14:44.111Z,375
2016-06-27T06:15:43.142Z,355
2016-06-27T06:16:43.881Z,340
2016-06-27T06:17:44.353Z,335
2016-06-27T06:18:43.375Z,320
2016-06-27T06:19:43.060Z,230
2016-06-27T06:20:46.339Z,210
2016-06-27T06:21:49.004Z,225
2016-06-27T06:34:43.735Z,210
2016-06-27T06:34:58.970Z,210
2016-06-27T06:35:59.079Z,210
2016-06-27T06:36:58.863Z,205
2016-06-27T06:37:59.433Z,230
2016-06-27T06:38:59.033Z,225
2016-06-27T06:40:00.680Z,225
2016-06-27T06:40:59.658Z,225
2016-06-27T06:41:58.960Z,205
2016-06-27T06:42:59.931Z,205
2016-06-27T06:43:59.318Z,220
2016-06-27T06:44:59.499Z,210
2016-06-27T06:45:59.121Z,230
2016-06-27T06:46:59.239Z,205
2016-06-27T06:47:58.903Z,210
2016-06-27T06:49:10.741Z,230
2016-06-27T06:50:11.042Z,230
2016-06-27T06:50:59.553Z,240
2016-06-27T06:51:59.780Z,205
2016-06-27T06:52:59.095Z,220
2016-06-27T06:54:01.007Z,210
2016-06-27T06:55:00.018Z,215
2016-06-27T06:55:59.349Z,200
2016-06-27T06:57:01.164Z,220
2016-06-27T06:58:01.280Z,215
2016-06-27T06:58:59.445Z,230
2016-06-27T07:00:00.296Z,240
2016-06-27T07:01:01.158Z,260
2016-06-27T07:02:00.099Z,300
2016-06-27T07:03:00.226Z,290
2016-06-27T07:03:59.632Z,230
2016-06-27T07:04:59.185Z,250
2016-06-27T07:05:59.296Z,295
2016-06-27T07:06:59.338Z,340
2016-06-27T07:07:59.599Z,340
2016-06-27T07:08:59.397Z,285
2016-06-27T07:09:59.268Z,280
2016-06-27T07:11:00.228Z,250
2016-06-27T07:11:59.156Z,260
2016-06-27T07:13:00.035Z,235
2016-06-27T07:13:59.595Z,230
2016-06-27T07:14:59.760Z,235
2016-06-27T07:16:01.176Z,255
2016-06-27T07:17:59.143Z,255
2016-06-27T07:18:58.915Z,240
2016-06-27T07:19:59.295Z,265
2016-06-27T07:20:59.582Z,290
2016-06-27T07:21:59.567Z,320
2016-06-27T07:22:59.033Z,305
2016-06-27T07:23:59.021Z,255
2016-06-27T07:24:59.360Z,260
2016-06-27T07:25:59.985Z,290
2016-06-27T07:26:59.047Z,245
2016-06-27T07:27:58.961Z,255
2016-06-27T07:28:59.126Z,260
2016-06-27T07:29:59.288Z,290
2016-06-27T07:30:59.318Z,315
2016-06-27T07:31:59.646Z,330
2016-06-27T07:32:58.850Z,285
2016-06-27T07:34:00.395Z,310
2016-06-27T07:35:00.863Z,330
2016-06-27T07:36:05.517Z,265
2016-06-27T07:37:01.627Z,375
2016-06-27T07:38:08.062Z,270
2016-06-27T07:38:58.827Z,310
2016-06-27T07:39:59.420Z,320
2016-06-27T07:40:59.017Z,380
2016-06-27T07:41:59.406Z,450
2016-06-27T07:43:09.440Z,360
2016-06-27T07:55:50.967Z,1090
2016-06-27T07:56:25.766Z,1085
2016-06-27T07:57:40.331Z,640
2016-06-27T07:58:25.678Z,590
2016-06-27T07:59:26.086Z,740
2016-06-27T08:00:26.300Z,980
2016-06-27T08:01:26.254Z,660
2016-06-27T08:02:27.087Z,600
2016-06-27T08:03:29.298Z,585
2016-06-27T08:04:26.533Z,580
2016-06-27T08:05:27.838Z,555
2016-06-27T08:06:26.446Z,565
2016-06-27T08:07:26.633Z,590
2016-06-27T08:08:29.814Z,575
2016-06-27T08:09:26.892Z,565
2016-06-27T08:10:25.502Z,575
2016-06-27T08:11:26.008Z,585
2016-06-27T08:12:38.028Z,650
2016-06-27T08:13:30.706Z,655
2016-06-27T08:14:25.911Z,555
2016-06-27T08:15:25.893Z,600
2016-06-27T08:16:25.747Z,620
2016-06-27T08:17:27.707Z,590
2016-06-27T08:18:25.561Z,555
2016-06-27T08:19:26.026Z,585
2016-06-27T08:20:26.049Z,600
2016-06-27T08:21:26.408Z,600
2016-06-27T08:22:26.368Z,595
2016-06-27T08:23:26.165Z,580
2016-06-27T08:24:26.604Z,595
2016-06-27T08:25:25.918Z,605
2016-06-27T08:26:25.900Z,600
2016-06-27T08:27:25.809Z,645
2016-06-27T08:28:26.569Z,625
2016-06-27T08:29:25.811Z,525
2016-06-27T08:30:30.434Z,460
2016-06-27T08:31:28.327Z,450
2016-06-27T08:32:26.666Z,430
2016-06-27T08:33:25.910Z,435
2016-06-27T08:34:25.876Z,440
2016-06-27T08:47:28.570Z,445
2016-06-27T08:47:46.540Z,430
2016-06-27T08:48:44.907Z,405
2016-06-27T08:49:44.234Z,410
2016-06-27T08:50:43.876Z,420
2016-06-27T08:51:43.754Z,440
2016-06-27T08:52:43.919Z,450
2016-06-27T08:53:44.518Z,485
2016-06-27T08:54:43.953Z,505
2016-06-27T08:55:44.387Z,530
2016-06-27T08:56:44.176Z,540
2016-06-27T08:57:44.266Z,550
2016-06-27T08:58:44.558Z,590
2016-06-27T08:59:44.817Z,630
2016-06-27T09:00:44.706Z,645
2016-06-27T09:01:44.792Z,655
2016-06-27T09:02:44.779Z,760
2016-06-27T09:03:44.180Z,660
2016-06-27T09:04:56.725Z,645
2016-06-27T09:05:44.498Z,755
2016-06-27T09:06:43.994Z,675
2016-06-27T09:07:45.172Z,690
2016-06-27T09:08:50.837Z,685
2016-06-27T09:09:45.299Z,570
2016-06-27T09:10:44.219Z,460
2016-06-27T09:11:45.951Z,445
2016-06-27T09:12:49.334Z,470
2016-06-27T09:13:50.821Z,520
2016-06-27T09:14:43.927Z,610
2016-06-27T09:15:47.883Z,540
2016-06-27T09:16:54.463Z,1915
2016-06-27T09:17:45.795Z,1025
2016-06-27T09:18:47.754Z,1345
2016-06-27T09:19:48.914Z,1125
2016-06-27T09:20:45.873Z,680
2016-06-27T09:21:47.840Z,1100
2016-06-27T09:22:56.955Z,645
2016-06-27T09:23:49.095Z,785
2016-06-27T09:24:46.915Z,1520
2016-06-27T09:25:46.020Z,1315
2016-06-27T09:26:44.253Z,885
2016-06-27T09:27:44.035Z,1250
2016-06-27T09:28:43.997Z,995
2016-06-27T09:29:44.141Z,795
2016-06-27T09:30:44.286Z,1095
2016-06-27T09:31:48.235Z,645
2016-06-27T09:32:47.715Z,485
2016-06-27T09:34:07.422Z,575
2016-06-27T09:34:44.262Z,665
2016-06-27T09:35:44.870Z,675
2016-06-27T09:36:44.500Z,730
2016-06-27T09:46:44.467Z,815
2016-06-27T09:46:59.340Z,1205
2016-06-27T09:48:04.627Z,740
2016-06-27T09:48:59.261Z,1005
2016-06-27T09:49:59.469Z,765
2016-06-27T09:50:59.513Z,840
2016-06-27T09:52:00.478Z,945
2016-06-27T09:52:59.312Z,1735
2016-06-27T09:54:00.681Z,1265
2016-06-27T09:55:00.662Z,895
2016-06-27T09:56:05.586Z,695
2016-06-27T09:56:59.615Z,645
2016-06-27T09:57:59.734Z,650
2016-06-27T09:58:59.355Z,655
2016-06-27T10:00:02.177Z,645
2016-06-27T10:01:06.345Z,710
2016-06-27T10:03:38.636Z,735
2016-06-27T10:04:08.915Z,655
2016-06-27T10:04:57.140Z,680
2016-06-27T10:05:53.886Z,705
2016-06-27T10:07:04.827Z,610
2016-06-27T10:07:53.740Z,595
2016-06-27T10:08:54.171Z,700
2016-06-27T10:09:53.726Z,1125
2016-06-27T10:10:53.785Z,735
2016-06-27T10:11:54.876Z,835
2016-06-27T10:12:54.207Z,1150
2016-06-27T10:13:54.005Z,1025
2016-06-27T10:14:55.516Z,2315
2016-06-27T10:15:55.544Z,2425
2016-06-27T10:17:02.730Z,1055
2016-06-27T10:18:07.191Z,1355
2016-06-27T10:18:59.049Z,965
2016-06-27T10:19:54.189Z,1160
2016-06-27T10:20:59.704Z,785
2016-06-27T10:21:58.323Z,1010
2016-06-27T10:22:55.121Z,1110
2016-06-27T10:23:55.192Z,1285
2016-06-27T10:24:54.003Z,1700
2016-06-27T10:25:53.782Z,2375
2016-06-27T10:26:53.740Z,1150
2016-06-27T10:27:56.753Z,720
2016-06-27T10:28:55.651Z,625
2016-06-27T10:29:54.167Z,720
2016-06-27T10:30:54.352Z,660
2016-06-27T10:31:57.010Z,740
2016-06-27T10:32:53.903Z,1890
2016-06-27T10:33:54.159Z,1635
2016-06-27T10:34:53.802Z,2265
2016-06-27T10:35:54.266Z,2335
2016-06-27T10:36:53.809Z,1130
2016-06-27T10:37:55.436Z,1730
2016-06-27T10:38:57.891Z,1000
2016-06-27T10:39:53.870Z,770
2016-06-27T10:40:54.257Z,665
2016-06-27T10:41:53.928Z,655
2016-06-27T10:42:56.688Z,770
2016-06-27T10:43:53.941Z,835
2016-06-27T10:44:54.098Z,2395
2016-06-27T10:45:54.457Z,1705
2016-06-27T10:46:54.766Z,720
2016-06-27T10:56:54.633Z,730
2016-06-27T10:57:12.810Z,455
2016-06-27T10:58:10.995Z,530
2016-06-27T10:59:10.308Z,635
2016-06-27T11:00:48.171Z,545
2016-06-27T11:01:11.500Z,485
2016-06-27T11:02:12.860Z,400
2016-06-27T11:03:13.735Z,360
2016-06-27T11:04:29.799Z,310
2016-06-27T11:05:13.926Z,305
2016-06-27T11:06:10.697Z,330
2016-06-27T11:07:11.444Z,375
2016-06-27T11:08:12.408Z,365
2016-06-27T11:09:11.769Z,420
2016-06-27T11:10:17.872Z,430
2016-06-27T11:11:25.958Z,540
2016-06-27T11:12:10.966Z,450
2016-06-27T11:13:11.693Z,470
2016-06-27T11:14:10.340Z,485
2016-06-27T11:15:11.890Z,420
2016-06-27T11:16:12.315Z,400
2016-06-27T11:17:10.234Z,365
2016-06-27T11:21:40.457Z,260
2016-06-27T11:21:55.971Z,265
2016-06-27T11:34:57.822Z,520
2016-06-27T11:35:13.511Z,510
2016-06-27T11:36:13.204Z,515
2016-06-27T11:37:14.167Z,560
2016-06-27T11:38:13.257Z,585
2016-06-27T11:39:14.578Z,540
2016-06-27T11:40:13.539Z,535
2016-06-27T11:41:17.126Z,740
2016-06-27T11:42:13.816Z,755
2016-06-27T11:43:13.061Z,645
2016-06-27T11:44:13.504Z,495
2016-06-27T11:45:14.669Z,495
2016-06-27T11:46:13.100Z,490
2016-06-27T11:58:29.775Z,405
2016-06-27T11:59:32.093Z,420
2016-06-27T12:00:30.214Z,415
2016-06-27T12:01:32.646Z,455
2016-06-27T12:02:31.555Z,400
2016-06-27T12:03:29.326Z,365
2016-06-27T12:04:29.099Z,325
2016-06-27T12:05:29.620Z,310
2016-06-27T12:06:28.757Z,285
2016-06-27T12:07:28.925Z,255
2016-06-27T12:08:28.679Z,245
2016-06-27T12:09:28.932Z,215
2016-06-27T12:10:28.726Z,215
2016-06-27T12:11:28.729Z,215
2016-06-27T12:12:28.806Z,245
2016-06-27T12:13:30.866Z,275
2016-06-27T12:14:29.391Z,280
2016-06-27T12:15:31.397Z,270
2016-06-27T12:16:28.948Z,265
2016-06-27T12:17:28.922Z,240
2016-06-27T12:18:29.475Z,290
2016-06-27T12:19:31.253Z,280
2016-06-27T12:20:33.210Z,320
2016-06-27T12:21:30.259Z,385
2016-06-27T12:22:32.634Z,425
2016-06-27T12:23:29.605Z,470
2016-06-27T12:24:29.427Z,485
2016-06-27T12:25:30.055Z,410
2016-06-27T12:26:56.860Z,395
2016-06-27T12:27:29.127Z,365
2016-06-27T12:28:30.324Z,390
2016-06-27T12:29:32.098Z,325
2016-06-27T12:30:28.935Z,455
2016-06-27T12:31:29.068Z,595
2016-06-27T12:32:28.759Z,670
2016-06-27T12:33:29.447Z,655
2016-06-27T12:34:29.240Z,580
2016-06-27T12:35:28.693Z,560
2016-06-27T12:36:28.663Z,495
2016-06-27T12:46:29.590Z,295
2016-06-27T12:47:08.291Z,285
2016-06-27T12:47:46.530Z,270
2016-06-27T12:48:44.769Z,295
2016-06-27T12:49:49.329Z,270
2016-06-27T12:50:45.483Z,270
2016-06-27T12:51:44.816Z,280
2016-06-27T12:52:49.646Z,285
2016-06-27T12:53:47.728Z,295
2016-06-27T12:54:44.726Z,280
2016-06-27T12:55:44.891Z,270
2016-06-27T12:56:44.767Z,285
2016-06-27T12:57:44.892Z,245
2016-06-27T12:58:45.094Z,250
2016-06-27T12:59:45.749Z,225
2016-06-27T13:01:00.380Z,225
2016-06-27T13:01:45.218Z,205
2016-06-27T13:02:44.804Z,205
2016-06-27T13:03:44.738Z,195
2016-06-27T13:04:46.128Z,160
2016-06-27T13:05:45.839Z,180
2016-06-27T13:06:44.975Z,195
2016-06-27T13:07:45.350Z,255
2016-06-27T13:08:44.695Z,330
2016-06-27T13:09:44.695Z,360
2016-06-27T13:10:46.850Z,345
2016-06-27T13:11:57.254Z,335
2016-06-27T13:12:45.189Z,285
2016-06-27T13:13:46.661Z,275
2016-06-27T13:14:45.062Z,315
2016-06-27T13:15:48.330Z,370
2016-06-27T13:16:49.110Z,380
2016-06-27T13:17:50.905Z,345
2016-06-27T13:18:56.807Z,530
2016-06-27T13:20:06.560Z,555
2016-06-27T13:20:46.258Z,515
2016-06-27T13:21:44.777Z,435
2016-06-27T13:22:49.718Z,385
2016-06-27T13:24:38.846Z,455
2016-06-27T13:33:56.702Z,260
2016-06-27T13:34:59.659Z,270
2016-06-27T13:35:59.170Z,270
2016-06-27T13:36:55.790Z,260
2016-06-27T13:38:14.432Z,240
2016-06-27T13:39:11.144Z,205
2016-06-27T13:39:57.140Z,200
2016-06-27T13:41:40.318Z,190
2016-06-27T13:41:55.721Z,185
2016-06-27T13:42:56.649Z,175
2016-06-27T13:44:18.304Z,150
2016-06-27T13:45:40.646Z,135
2016-06-27T13:46:00.663Z,130
2016-06-27T13:46:57.573Z,120
2016-06-27T13:48:05.228Z,105
2016-06-27T13:48:59.778Z,100
2016-06-27T13:50:09.853Z,100
2016-06-27T13:50:58.406Z,100
2016-06-27T13:51:58.176Z,110
2016-06-27T13:53:11.128Z,100
2016-06-27T13:54:12.522Z,95
2016-06-27T13:56:35.003Z,140
2016-06-27T13:56:52.192Z,145
2016-06-27T13:57:50.557Z,150
2016-06-27T13:58:50.840Z,135
2016-06-27T13:59:51.587Z,95
2016-06-27T14:00:51.366Z,80
2016-06-27T14:02:34.105Z,95
2016-06-27T14:02:51.898Z,95
2016-06-27T14:03:56.035Z,90
2016-06-27T14:05:03.773Z,85
2016-06-27T14:05:54.547Z,80
2016-06-27T14:07:08.741Z,85
2016-06-27T14:07:58.360Z,85
2016-06-27T14:08:51.674Z,95
2016-06-27T14:09:50.768Z,100
2016-06-27T14:10:50.977Z,100
2016-06-27T14:12:28.353Z,90
2016-06-27T14:13:16.537Z,90
2016-06-27T14:13:55.800Z,90
2016-06-27T14:14:55.888Z,80
2016-06-27T14:16:00.920Z,100
2016-06-27T14:16:53.229Z,110
2016-06-27T14:17:54.166Z,105
2016-06-27T14:18:51.472Z,110
2016-06-27T14:19:54.167Z,135
2016-06-27T14:20:51.587Z,140
2016-06-27T14:21:52.599Z,125
2016-06-27T14:22:55.433Z,135
2016-06-27T14:23:55.347Z,130
2016-06-27T14:34:06.718Z,155
2016-06-27T14:34:23.186Z,155
2016-06-27T14:35:25.234Z,145
2016-06-27T14:36:22.827Z,150
2016-06-27T14:37:22.875Z,145
2016-06-27T14:38:22.539Z,170
2016-06-27T14:39:30.172Z,175
2016-06-27T14:40:25.921Z,170
2016-06-27T14:41:22.510Z,180
2016-06-27T14:42:24.494Z,230
2016-06-27T14:43:48.189Z,280
2016-06-27T14:44:23.217Z,280
2016-06-27T14:45:22.754Z,270
2016-06-27T14:46:23.562Z,280
2016-06-27T14:47:25.462Z,300
2016-06-27T14:49:27.665Z,280
2016-06-27T14:50:23.823Z,270
2016-06-27T14:51:22.359Z,245
2016-06-27T14:53:12.182Z,255
2016-06-27T14:53:27.313Z,255
2016-06-27T14:54:27.538Z,245
2016-06-27T14:55:27.878Z,240
2016-06-27T14:56:27.373Z,240
2016-06-27T14:57:28.512Z,195
2016-06-27T14:58:32.339Z,200
2016-06-27T14:59:29.751Z,230
2016-06-27T15:00:28.305Z,250
2016-06-27T15:01:27.301Z,225
2016-06-27T15:02:27.671Z,195
2016-06-27T15:03:27.788Z,180
2016-06-27T15:04:31.319Z,175
2016-06-27T15:05:27.680Z,165
2016-06-27T15:06:27.237Z,165
2016-06-27T15:07:27.243Z,160
2016-06-27T15:08:27.387Z,170
2016-06-27T15:09:27.554Z,195
2016-06-27T15:10:30.341Z,200
2016-06-27T15:11:27.625Z,220
2016-06-27T15:12:27.491Z,220
2016-06-27T15:13:28.098Z,185
2016-06-27T15:14:31.186Z,215
2016-06-27T15:15:27.268Z,250
2016-06-27T15:16:27.396Z,240
2016-06-27T15:17:27.306Z,195
2016-06-27T15:18:27.819Z,155
2016-06-27T15:19:28.268Z,155
2016-06-27T15:20:27.384Z,135
2016-06-27T15:21:27.247Z,145
2016-06-27T15:22:27.416Z,180
2016-06-27T15:23:27.479Z,145
2016-06-27T15:24:27.299Z,110
2016-06-27T15:25:27.262Z,100
2016-06-27T15:26:27.297Z,115
2016-06-27T15:27:27.814Z,130
2016-06-27T15:28:27.944Z,145
2016-06-27T15:29:28.208Z,130
2016-06-27T15:30:27.652Z,135
2016-06-27T15:31:27.657Z,140
2016-06-27T15:32:28.191Z,135
2016-06-27T15:33:27.999Z,135
2016-06-27T15:34:27.592Z,130
2016-06-27T15:35:28.393Z,135
2016-06-27T15:36:28.067Z,120
2016-06-27T15:37:27.322Z,120
2016-06-27T15:38:27.289Z,105
2016-06-27T15:39:27.305Z,105
2016-06-27T15:40:28.935Z,85
2016-06-27T15:50:28.011Z,115
2016-06-27T15:50:43.340Z,120
2016-06-27T15:51:43.624Z,160
2016-06-27T15:52:43.936Z,150
2016-06-27T15:53:43.648Z,130
2016-06-27T15:54:43.377Z,135
2016-06-27T15:55:43.216Z,160
2016-06-27T15:56:43.154Z,205
2016-06-27T15:57:43.209Z,250
2016-06-27T15:58:43.119Z,255
2016-06-27T15:59:43.317Z,230
2016-06-27T16:00:43.720Z,170
2016-06-27T16:01:43.743Z,160
2016-06-27T16:02:43.227Z,180
2016-06-27T16:03:43.106Z,165
2016-06-27T16:04:44.754Z,130
2016-06-27T16:05:43.271Z,130
2016-06-27T16:06:43.998Z,125
2016-06-27T16:07:43.349Z,95
2016-06-27T16:08:43.230Z,75
2016-06-27T16:09:43.171Z,85
2016-06-27T16:10:43.931Z,90
2016-06-27T16:11:44.041Z,105
2016-06-27T16:12:43.186Z,105
2016-06-27T16:13:43.361Z,90
2016-06-27T16:14:43.534Z,90
2016-06-27T16:15:43.975Z,95
2016-06-27T16:16:43.748Z,90
2016-06-27T16:17:43.508Z,90
2016-06-27T16:18:53.205Z,75
2016-06-27T16:19:43.211Z,75
2016-06-27T16:20:43.187Z,80
2016-06-27T16:21:43.761Z,75
2016-06-27T16:22:43.143Z,65
2016-06-27T16:23:44.314Z,75
2016-06-27T16:24:43.581Z,60
2016-06-27T16:25:44.118Z,45